createdAt,value
2018-12-16T00:01:53.152Z,3.90
2018-12-16T00:04:21.646Z,3.30
2018-12-16T00:06:50.116Z,2.53
2018-12-16T00:09:18.773Z,2.80
2018-12-16T00:11:47.250Z,2.73
2018-12-16T00:14:15.861Z,2.87
2018-12-16T00:16:44.340Z,3.40
2018-12-16T00:19:12.680Z,3.27
2018-12-16T00:21:41.087Z,3.53
2018-12-16T00:24:09.470Z,3.27
2018-12-16T00:26:49.834Z,3.60
2018-12-16T00:29:18.172Z,3.23
2018-12-16T00:31:46.691Z,2.77
2018-12-16T00:34:15.037Z,3.60
2018-12-16T00:36:43.394Z,2.80
2018-12-16T00:39:11.727Z,3.87
2018-12-16T00:41:40.153Z,3.10
2018-12-16T00:44:08.501Z,2.70
2018-12-16T00:46:36.824Z,2.87
2018-12-16T00:49:05.177Z,3.10
2018-12-16T00:51:33.515Z,2.97
2018-12-16T00:54:01.852Z,2.70
2018-12-16T00:56:30.197Z,2.90
2018-12-16T00:58:58.545Z,2.50
2018-12-16T01:01:26.888Z,3.33
2018-12-16T01:03:55.251Z,2.80
2018-12-16T01:06:23.593Z,2.90
2018-12-16T01:08:51.931Z,2.63
2018-12-16T01:11:20.332Z,2.60
2018-12-16T01:13:48.684Z,3.30
2018-12-16T01:16:17.031Z,2.60
2018-12-16T01:18:45.362Z,2.90
2018-12-16T01:21:13.829Z,3.07
2018-12-16T01:23:42.171Z,2.90
2018-12-16T01:26:10.520Z,2.60
2018-12-16T01:28:39.094Z,3.23
2018-12-16T01:31:07.446Z,2.90
2018-12-16T01:33:35.822Z,3.17
2018-12-16T01:36:05.838Z,2.97
2018-12-16T01:38:34.182Z,3.03
2018-12-16T01:41:02.516Z,3.27
2018-12-16T01:43:30.931Z,3.17
2018-12-16T01:45:59.323Z,3.17
2018-12-16T01:48:27.747Z,2.90
2018-12-16T01:50:56.185Z,3.83
2018-12-16T01:53:24.525Z,2.33
2018-12-16T01:55:52.876Z,2.50
2018-12-16T01:58:21.227Z,2.43
2018-12-16T02:00:49.751Z,3.00
2018-12-16T02:03:18.234Z,2.90
2018-12-16T02:05:46.571Z,2.67
2018-12-16T02:08:14.962Z,3.20
2018-12-16T02:10:43.388Z,3.07
2018-12-16T02:13:11.732Z,2.93
2018-12-16T02:15:40.361Z,3.00
2018-12-16T02:18:08.684Z,2.90
2018-12-16T02:20:37.075Z,2.97
2018-12-16T02:23:05.400Z,2.70
2018-12-16T02:25:33.740Z,2.37
2018-12-16T02:28:02.078Z,2.97
2018-12-16T02:30:30.412Z,2.73
2018-12-16T02:32:58.731Z,3.13
2018-12-16T02:35:27.067Z,2.30
2018-12-16T02:37:55.393Z,3.27
2018-12-16T02:40:23.748Z,3.17
2018-12-16T02:42:52.180Z,3.30
2018-12-16T02:45:20.594Z,3.30
2018-12-16T02:47:48.963Z,2.33
2018-12-16T02:50:17.294Z,3.00
2018-12-16T02:52:45.610Z,2.70
2018-12-16T02:55:13.948Z,3.40
2018-12-16T02:57:42.266Z,2.90
2018-12-16T03:00:10.815Z,2.53
2018-12-16T03:02:39.200Z,3.50
2018-12-16T03:05:07.640Z,3.03
2018-12-16T03:07:35.966Z,3.07
2018-12-16T03:10:04.707Z,2.77
2018-12-16T03:12:33.072Z,3.67
2018-12-16T03:15:01.719Z,3.07
2018-12-16T03:17:30.180Z,2.87
2018-12-16T03:19:58.529Z,3.53
2018-12-16T03:22:26.870Z,3.13
2018-12-16T03:24:55.201Z,2.90
2018-12-16T03:27:23.539Z,3.80
2018-12-16T03:29:51.874Z,3.10
2018-12-16T03:32:20.217Z,3.93
2018-12-16T03:34:48.549Z,4.20
2018-12-16T03:37:16.982Z,3.60
2018-12-16T03:39:45.304Z,4.03
2018-12-16T03:42:13.749Z,3.30
2018-12-16T03:44:42.089Z,3.73
2018-12-16T03:47:10.415Z,4.10
2018-12-16T03:49:38.759Z,3.77
2018-12-16T03:52:07.290Z,3.80
2018-12-16T03:54:35.856Z,3.80
2018-12-16T03:57:04.191Z,4.03
2018-12-16T03:59:32.521Z,4.10
2018-12-16T04:02:00.846Z,3.77
2018-12-16T04:04:29.182Z,4.00
2018-12-16T04:06:57.510Z,3.40
2018-12-16T04:09:25.850Z,4.33
2018-12-16T04:11:54.173Z,4.00
2018-12-16T04:14:22.505Z,4.20
2018-12-16T04:16:50.854Z,4.63
2018-12-16T04:19:19.204Z,4.47
2018-12-16T04:21:47.541Z,3.93
2018-12-16T04:24:15.866Z,4.83
2018-12-16T04:26:44.359Z,4.17
2018-12-16T04:29:12.698Z,3.90
2018-12-16T04:31:41.117Z,4.77
2018-12-16T04:34:09.455Z,5.50
2018-12-16T04:36:37.878Z,4.40
2018-12-16T04:39:06.305Z,4.83
2018-12-16T04:41:34.646Z,5.20
2018-12-16T04:44:02.983Z,4.80
2018-12-16T04:46:31.317Z,4.10
2018-12-16T04:48:59.659Z,4.70
2018-12-16T04:51:27.999Z,4.80
2018-12-16T04:53:56.418Z,5.60
2018-12-16T04:56:24.840Z,4.13
2018-12-16T04:58:53.257Z,5.13
2018-12-16T05:01:21.599Z,5.00
2018-12-16T05:03:49.918Z,5.07
2018-12-16T05:06:19.599Z,4.70
2018-12-16T05:08:48.189Z,4.93
2018-12-16T05:11:16.522Z,5.20
2018-12-16T05:13:44.910Z,5.57
2018-12-16T05:16:13.271Z,5.20
2018-12-16T05:18:41.596Z,5.67
2018-12-16T05:21:10.039Z,4.80
2018-12-16T05:23:41.943Z,5.73
2018-12-16T05:26:08.936Z,4.67
2018-12-16T05:28:37.280Z,5.10
2018-12-16T05:31:05.791Z,5.43
2018-12-16T05:33:34.141Z,5.00
2018-12-16T05:36:02.470Z,6.43
2018-12-16T05:38:30.807Z,5.43
2018-12-16T05:40:59.148Z,6.43
2018-12-16T05:43:27.474Z,5.47
2018-12-16T05:45:55.917Z,6.90
2018-12-16T05:48:24.238Z,6.70
2018-12-16T05:50:52.581Z,6.70
2018-12-16T05:53:20.913Z,6.40
2018-12-16T05:55:49.300Z,6.80
2018-12-16T05:58:17.638Z,7.30
2018-12-16T06:00:45.984Z,6.60
2018-12-16T06:03:14.309Z,6.83
2018-12-16T06:05:42.827Z,7.10
2018-12-16T06:08:11.357Z,6.83
2018-12-16T06:10:39.693Z,7.30
2018-12-16T06:13:08.013Z,6.50
2018-12-16T06:15:36.346Z,6.77
2018-12-16T06:18:04.674Z,7.67
2018-12-16T06:20:33.440Z,6.57
2018-12-16T06:23:01.767Z,7.33
2018-12-16T06:25:30.093Z,7.27
2018-12-16T06:27:58.436Z,8.33
2018-12-16T06:30:27.605Z,9.00
2018-12-16T06:32:55.924Z,7.80
2018-12-16T06:35:24.251Z,9.23
2018-12-16T06:37:52.579Z,7.50
2018-12-16T06:40:20.993Z,8.80
2018-12-16T06:42:49.313Z,8.40
2018-12-16T06:45:17.660Z,8.30
2018-12-16T06:47:46.064Z,8.53
2018-12-16T06:50:14.401Z,8.40
2018-12-16T06:52:42.753Z,8.40
2018-12-16T06:55:11.076Z,9.10
2018-12-16T06:57:39.428Z,9.80
2018-12-16T07:00:07.986Z,8.90
2018-12-16T07:02:36.316Z,9.20
2018-12-16T07:05:04.866Z,8.67
2018-12-16T07:07:33.202Z,8.40
2018-12-16T07:10:01.553Z,7.70
2018-12-16T07:12:29.922Z,7.80
2018-12-16T07:14:58.291Z,8.20
2018-12-16T07:17:26.733Z,8.03
2018-12-16T07:19:55.260Z,7.10
2018-12-16T07:22:23.589Z,7.80
2018-12-16T07:24:51.935Z,8.30
2018-12-16T07:27:20.281Z,8.60
2018-12-16T07:29:48.624Z,8.23
2018-12-16T07:32:16.989Z,7.43
2018-12-16T07:34:45.458Z,7.80
2018-12-16T07:37:19.014Z,8.63
2018-12-16T07:39:44.244Z,7.43
2018-12-16T07:42:12.561Z,7.80
2018-12-16T07:44:40.897Z,8.90
2018-12-16T07:47:09.282Z,9.20
2018-12-16T07:49:37.716Z,9.03
2018-12-16T07:52:06.216Z,9.13
2018-12-16T07:54:34.791Z,9.17
2018-12-16T07:57:03.280Z,10.23
2018-12-16T07:59:31.639Z,10.03
2018-12-16T08:01:59.984Z,9.37
2018-12-16T08:04:28.347Z,9.20
2018-12-16T08:06:56.900Z,10.00
2018-12-16T08:09:25.373Z,11.20
2018-12-16T08:11:53.914Z,13.90
2018-12-16T08:14:22.489Z,11.07
2018-12-16T08:16:50.845Z,9.90
2018-12-16T08:19:19.327Z,10.10
2018-12-16T08:21:47.669Z,9.27
2018-12-16T08:24:22.912Z,9.77
2018-12-16T08:26:46.391Z,10.37
2018-12-16T08:29:14.859Z,10.20
2018-12-16T08:31:43.217Z,10.33
2018-12-16T08:34:11.567Z,9.07
2018-12-16T08:36:39.902Z,9.83
2018-12-16T08:39:08.268Z,9.30
2018-12-16T08:41:36.614Z,9.37
2018-12-16T08:44:04.981Z,9.60
2018-12-16T08:46:33.346Z,10.10
2018-12-16T08:49:01.990Z,9.23
2018-12-16T08:51:30.469Z,9.27
2018-12-16T08:53:58.824Z,7.80
2018-12-16T08:56:27.263Z,8.00
2018-12-16T08:58:55.602Z,8.13
2018-12-16T09:01:24.188Z,10.13
2018-12-16T09:03:52.938Z,10.53
2018-12-16T09:06:21.460Z,9.63
2018-12-16T09:08:50.429Z,10.13
2018-12-16T09:11:18.834Z,11.33
2018-12-16T09:13:47.190Z,12.00
2018-12-16T09:16:15.553Z,11.70
2018-12-16T09:18:43.910Z,10.13
2018-12-16T09:21:12.247Z,13.57
2018-12-16T09:23:40.619Z,11.30
2018-12-16T09:26:08.995Z,10.80
2018-12-16T09:28:37.351Z,12.53
2018-12-16T09:31:05.703Z,12.57
2018-12-16T09:33:34.232Z,16.73
2018-12-16T09:36:02.574Z,15.20
2018-12-16T09:38:30.925Z,14.37
2018-12-16T09:40:59.265Z,14.73
2018-12-16T09:43:27.627Z,14.97
2018-12-16T09:45:55.969Z,16.90
2018-12-16T09:48:24.320Z,16.30
2018-12-16T09:50:52.682Z,15.07
2018-12-16T09:53:21.117Z,15.87
2018-12-16T09:55:49.488Z,13.70
2018-12-16T09:58:17.850Z,14.93
2018-12-16T10:00:46.226Z,13.63
2018-12-16T10:03:15.803Z,14.10
2018-12-16T10:05:44.175Z,12.00
2018-12-16T10:08:12.525Z,11.60
2018-12-16T10:10:40.987Z,14.93
2018-12-16T10:13:09.424Z,16.60
2018-12-16T10:15:37.879Z,15.27
2018-12-16T10:18:06.387Z,15.20
2018-12-16T10:20:34.725Z,15.40
2018-12-16T10:23:03.071Z,15.93
2018-12-16T10:25:31.426Z,15.10
2018-12-16T10:27:59.775Z,16.13
2018-12-16T10:30:28.117Z,15.40
2018-12-16T10:32:56.462Z,15.77
2018-12-16T10:35:24.819Z,16.00
2018-12-16T10:37:53.199Z,16.33
2018-12-16T10:40:21.545Z,14.40
2018-12-16T10:42:49.909Z,13.90
2018-12-16T10:45:18.377Z,14.27
2018-12-16T10:47:46.748Z,14.93
2018-12-16T10:50:15.121Z,14.23
2018-12-16T10:52:43.641Z,15.50
2018-12-16T10:55:12.004Z,13.10
2018-12-16T10:57:40.363Z,13.53
2018-12-16T11:03:13.092Z,14.83
2018-12-16T11:05:41.547Z,14.97
2018-12-16T11:08:09.908Z,20.77
2018-12-16T11:10:38.404Z,17.63
2018-12-16T11:13:07.733Z,17.40
2018-12-16T11:15:36.158Z,16.40
2018-12-16T11:18:04.532Z,17.13
2018-12-16T11:20:32.897Z,16.77
2018-12-16T11:23:01.255Z,17.77
2018-12-16T11:25:29.720Z,20.70
2018-12-16T11:27:58.075Z,22.43
2018-12-16T11:30:26.522Z,20.23
2018-12-16T11:32:54.887Z,20.33
2018-12-16T11:35:23.365Z,19.47
2018-12-16T11:37:51.864Z,19.10
2018-12-16T11:40:20.229Z,19.90
2018-12-16T11:42:48.593Z,19.13
2018-12-16T11:45:16.950Z,20.57
2018-12-16T11:47:45.820Z,19.10
2018-12-16T11:50:14.267Z,20.07
2018-12-16T11:52:42.614Z,21.33
2018-12-16T11:55:12.963Z,20.90
2018-12-16T11:57:41.378Z,20.70
2018-12-16T12:00:10.064Z,20.27
2018-12-16T12:02:38.404Z,17.53
2018-12-16T12:05:06.812Z,19.07
2018-12-16T12:07:35.171Z,17.10
2018-12-16T12:10:04.583Z,17.87
2018-12-16T12:12:32.947Z,18.50
2018-12-16T12:15:01.325Z,18.13
2018-12-16T12:17:29.680Z,19.60
2018-12-16T12:19:58.146Z,16.83
2018-12-16T12:22:26.504Z,16.80
2018-12-16T12:24:55.035Z,16.37
2018-12-16T12:27:23.510Z,16.90
2018-12-16T12:29:51.871Z,17.60
2018-12-16T12:32:20.224Z,16.67
2018-12-16T12:34:48.859Z,15.57
2018-12-16T12:37:17.230Z,16.87
2018-12-16T12:39:45.586Z,15.80
2018-12-16T12:42:13.942Z,16.40
2018-12-16T12:44:42.316Z,15.30
2018-12-16T12:47:11.028Z,15.47
2018-12-16T12:49:45.029Z,15.37
2018-12-16T12:52:09.929Z,14.33
2018-12-16T12:54:38.284Z,14.63
2018-12-16T12:57:06.655Z,15.63
2018-12-16T12:59:35.067Z,14.40
2018-12-16T13:02:03.693Z,15.30
2018-12-16T13:04:32.449Z,15.37
2018-12-16T13:07:00.850Z,16.10
2018-12-16T13:09:29.239Z,14.63
2018-12-16T13:11:57.625Z,15.10
2018-12-16T13:14:25.970Z,15.33
2018-12-16T13:16:54.322Z,14.83
2018-12-16T13:19:22.838Z,13.87
2018-12-16T13:21:51.210Z,17.50
2018-12-16T13:24:19.552Z,15.93
2018-12-16T13:26:48.881Z,15.10
2018-12-16T13:29:17.239Z,15.17
2018-12-16T13:31:45.860Z,15.00
2018-12-16T13:34:14.277Z,14.30
2018-12-16T13:36:42.819Z,13.93
2018-12-16T13:39:11.197Z,15.40
2018-12-16T13:41:39.563Z,21.23
2018-12-16T13:44:07.942Z,23.40
2018-12-16T13:46:36.311Z,18.83
2018-12-16T13:50:13.731Z,291.60
2018-12-16T13:52:42.106Z,461.37
2018-12-16T13:55:10.645Z,59.83
2018-12-16T13:57:39.600Z,49.30
2018-12-16T14:00:08.417Z,41.87
2018-12-16T14:02:36.910Z,41.00
2018-12-16T14:05:06.296Z,38.13
2018-12-16T14:07:35.094Z,37.87
2018-12-16T14:10:04.905Z,36.10
2018-12-16T14:12:33.278Z,31.67
2018-12-16T14:15:01.649Z,34.03
2018-12-16T14:17:30.104Z,33.20
2018-12-16T14:19:58.481Z,29.00
2018-12-16T14:22:27.080Z,29.83
2018-12-16T14:24:55.506Z,32.27
2018-12-16T14:27:23.875Z,29.43
2018-12-16T14:29:52.548Z,30.23
2018-12-16T14:32:21.193Z,27.40
2018-12-16T14:34:49.544Z,27.80
2018-12-16T14:37:17.899Z,26.90
2018-12-16T14:39:46.390Z,26.37
2018-12-16T14:42:15.708Z,26.67
2018-12-16T14:44:44.321Z,26.00
2018-12-16T14:47:12.695Z,28.10
2018-12-16T14:49:41.063Z,26.37
2018-12-16T14:52:09.594Z,26.27
2018-12-16T14:54:39.375Z,25.53
2018-12-16T14:57:07.957Z,28.83
2018-12-16T14:59:36.583Z,27.23
2018-12-16T15:02:05.443Z,28.23
2018-12-16T15:04:33.937Z,27.57
2018-12-16T15:07:02.312Z,26.80
2018-12-16T15:09:30.764Z,26.70
2018-12-16T15:11:59.133Z,25.60
2018-12-16T15:14:27.575Z,27.23
2018-12-16T15:16:55.942Z,26.50
2018-12-16T15:19:24.326Z,26.93
2018-12-16T15:21:52.922Z,27.43
2018-12-16T15:24:21.486Z,29.07
2018-12-16T15:26:49.852Z,27.60
2018-12-16T15:29:18.222Z,27.83
2018-12-16T15:31:46.575Z,27.30
2018-12-16T15:34:14.919Z,26.60
2018-12-16T15:36:43.277Z,26.70
2018-12-16T15:39:12.835Z,25.10
2018-12-16T15:41:41.278Z,29.57
2018-12-16T15:44:09.854Z,25.20
2018-12-16T15:46:38.229Z,27.30
2018-12-16T15:49:06.863Z,27.00
2018-12-16T15:51:35.835Z,27.57
2018-12-16T15:54:04.573Z,26.90
2018-12-16T15:56:33.183Z,25.93
2018-12-16T15:59:03.380Z,27.57
2018-12-16T16:01:32.562Z,28.20
2018-12-16T16:04:01.988Z,27.63
2018-12-16T16:06:30.377Z,26.83
2018-12-16T16:08:58.781Z,27.50
2018-12-16T16:11:27.835Z,28.73
2018-12-16T16:13:56.233Z,27.20
2018-12-16T16:16:24.999Z,28.50
2018-12-16T16:18:54.502Z,27.73
2018-12-16T16:21:23.606Z,27.80
2018-12-16T16:23:52.282Z,29.07
2018-12-16T16:26:21.182Z,27.60
2018-12-16T16:28:49.550Z,27.87
2018-12-16T16:31:17.937Z,26.93
2018-12-16T16:33:46.520Z,27.63
2018-12-16T16:36:15.214Z,27.37
2018-12-16T16:38:43.783Z,28.10
2018-12-16T16:41:12.369Z,29.30
2018-12-16T16:43:40.844Z,27.63
2018-12-16T16:46:09.228Z,29.20
2018-12-16T16:48:37.581Z,27.80
2018-12-16T16:51:05.927Z,27.63
2018-12-16T16:53:34.305Z,28.90
2018-12-16T16:56:02.938Z,27.03
2018-12-16T16:58:31.292Z,28.70
2018-12-16T17:00:59.649Z,27.90
2018-12-16T17:03:27.989Z,27.20
2018-12-16T17:05:56.329Z,29.43
2018-12-16T17:08:24.695Z,27.90
2018-12-16T17:10:53.151Z,26.90
2018-12-16T17:13:21.698Z,31.40
2018-12-16T17:15:50.174Z,28.20
2018-12-16T17:18:18.539Z,29.57
2018-12-16T17:20:46.928Z,28.37
2018-12-16T17:23:15.524Z,27.57
2018-12-16T17:25:48.143Z,28.53
2018-12-16T17:28:14.479Z,28.20
2018-12-16T17:30:42.842Z,28.80
2018-12-16T17:33:11.291Z,29.93
2018-12-16T17:35:39.722Z,29.83
2018-12-16T17:38:08.486Z,29.77
2018-12-16T17:40:37.520Z,29.27
2018-12-16T17:43:06.126Z,28.57
2018-12-16T17:45:34.464Z,27.70
2018-12-16T17:48:02.833Z,26.40
2018-12-16T17:50:31.315Z,27.47
2018-12-16T17:52:59.847Z,26.63
2018-12-16T17:55:28.236Z,27.87
2018-12-16T17:57:56.607Z,28.93
2018-12-16T18:00:25.279Z,28.03
2018-12-16T18:02:53.652Z,26.90
2018-12-16T18:05:22.040Z,26.57
2018-12-16T18:07:50.520Z,28.20
2018-12-16T18:10:18.878Z,29.57
2018-12-16T18:12:47.636Z,28.30
2018-12-16T18:15:15.984Z,27.60
2018-12-16T18:17:44.653Z,28.70
2018-12-16T18:20:13.125Z,26.60
2018-12-16T18:22:41.487Z,28.63
2018-12-16T18:25:09.855Z,29.40
2018-12-16T18:27:38.376Z,29.50
2018-12-16T18:30:07.764Z,27.37
2018-12-16T18:32:36.251Z,30.57
2018-12-16T18:35:05.751Z,29.50
2018-12-16T18:37:34.324Z,29.77
2018-12-16T18:40:03.020Z,30.20
2018-12-16T18:42:31.422Z,28.63
2018-12-16T18:44:59.983Z,27.97
2018-12-16T18:47:28.318Z,27.47
2018-12-16T18:49:56.892Z,30.43
2018-12-16T18:52:25.497Z,29.80
2018-12-16T18:54:53.881Z,28.50
2018-12-16T18:57:22.389Z,28.90
2018-12-16T18:59:50.866Z,28.50
2018-12-16T19:02:19.238Z,26.87
2018-12-16T19:04:47.597Z,26.60
2018-12-16T19:07:16.002Z,27.83
2018-12-16T19:09:44.506Z,28.70
2018-12-16T19:12:12.878Z,30.90
2018-12-16T19:14:41.764Z,28.73
2018-12-16T19:17:10.131Z,30.43
2018-12-16T19:19:38.514Z,29.50
2018-12-16T19:22:06.899Z,28.23
2018-12-16T19:24:35.271Z,31.30
2018-12-16T19:27:03.655Z,29.10
2018-12-16T19:29:32.226Z,28.30
2018-12-16T19:32:00.703Z,29.70
2018-12-16T19:34:29.066Z,27.60
2018-12-16T19:36:57.440Z,29.27
2018-12-16T19:39:25.806Z,29.10
2018-12-16T19:41:54.340Z,30.37
2018-12-16T19:44:22.907Z,28.80
2018-12-16T19:46:51.486Z,31.00
2018-12-16T19:49:19.992Z,29.30
2018-12-16T19:51:50.191Z,29.37
2018-12-16T19:54:19.056Z,29.70
2018-12-16T19:56:47.429Z,29.43
2018-12-16T19:59:15.790Z,31.50
2018-12-16T20:01:44.169Z,31.90
2018-12-16T20:04:16.513Z,30.80
2018-12-16T20:06:46.500Z,34.00
2018-12-16T20:09:14.980Z,32.17
2018-12-16T20:11:43.337Z,31.37
2018-12-16T20:14:11.699Z,31.47
2018-12-16T20:16:41.345Z,29.60
2018-12-16T20:19:09.734Z,30.40
2018-12-16T20:21:38.219Z,32.93
2018-12-16T20:24:06.798Z,29.00
2018-12-16T20:26:35.191Z,30.17
2018-12-16T20:29:03.661Z,31.67
2018-12-16T20:31:32.023Z,31.87
2018-12-16T20:34:00.386Z,31.47
2018-12-16T20:36:29.248Z,31.90
2018-12-16T20:38:57.807Z,30.87
2018-12-16T20:41:26.203Z,33.83
2018-12-16T20:43:54.745Z,31.90
2018-12-16T20:46:23.112Z,32.80
2018-12-16T20:48:51.602Z,31.73
2018-12-16T20:51:19.974Z,31.73
2018-12-16T20:53:48.350Z,29.13
2018-12-16T20:56:17.682Z,31.00
2018-12-16T20:58:46.132Z,32.67
2018-12-16T21:01:14.514Z,31.70
2018-12-16T21:03:42.888Z,32.40
2018-12-16T21:06:11.257Z,32.40
2018-12-16T21:08:39.652Z,33.63
2018-12-16T21:11:13.861Z,32.10
2018-12-16T21:13:47.828Z,31.77
2018-12-16T21:16:21.930Z,32.97
2018-12-16T21:18:50.298Z,30.83
2018-12-16T21:21:18.744Z,32.80
2018-12-16T21:23:47.430Z,31.37
2018-12-16T21:26:16.253Z,34.00
2018-12-16T21:28:44.803Z,31.87
2018-12-16T21:31:14.227Z,34.17
2018-12-16T21:33:42.798Z,34.13
2018-12-16T21:36:11.167Z,31.63
2018-12-16T21:38:39.606Z,33.00
2018-12-16T21:41:07.943Z,32.23
2018-12-16T21:43:36.297Z,33.13
2018-12-16T21:46:04.881Z,32.13
2018-12-16T21:48:33.240Z,33.50
2018-12-16T21:51:01.742Z,32.87
2018-12-16T21:53:30.111Z,31.97
2018-12-16T21:55:58.486Z,32.73
2018-12-16T21:58:26.887Z,33.90
2018-12-16T22:00:55.238Z,32.73
2018-12-16T22:03:23.617Z,31.77
2018-12-16T22:05:52.023Z,32.20
2018-12-16T22:08:20.367Z,32.37
2018-12-16T22:10:48.710Z,33.17
2018-12-16T22:13:17.067Z,31.87
2018-12-16T22:15:45.431Z,31.20
2018-12-16T22:18:13.779Z,32.10
2018-12-16T22:20:42.722Z,33.80
2018-12-16T22:23:11.066Z,33.27
2018-12-16T22:25:39.420Z,31.73
2018-12-16T22:28:07.765Z,32.90
2018-12-16T22:30:36.110Z,33.60
2018-12-16T22:33:04.466Z,34.50
2018-12-16T22:35:32.832Z,33.40
2018-12-16T22:38:01.177Z,32.60
2018-12-16T22:40:29.976Z,34.50
2018-12-16T22:42:58.317Z,34.07
2018-12-16T22:45:26.774Z,35.23
2018-12-16T22:47:55.256Z,33.57
2018-12-16T22:50:23.737Z,31.00
2018-12-16T22:52:52.098Z,33.10
2018-12-16T22:55:20.679Z,33.13
2018-12-16T22:57:49.080Z,33.30
2018-12-16T23:00:17.733Z,34.03
2018-12-16T23:02:46.250Z,32.33
2018-12-16T23:05:14.714Z,32.80
2018-12-16T23:07:43.076Z,33.33
2018-12-16T23:10:11.790Z,31.57
2018-12-16T23:12:40.132Z,31.80
2018-12-16T23:15:08.676Z,31.23
2018-12-16T23:17:37.229Z,31.73
2018-12-16T23:20:11.553Z,31.40
2018-12-16T23:22:40.010Z,33.67
2018-12-16T23:25:09.119Z,29.77
2018-12-16T23:27:37.475Z,32.00
2018-12-16T23:30:07.169Z,34.50
2018-12-16T23:32:35.599Z,32.90
2018-12-16T23:35:04.779Z,32.70
2018-12-16T23:37:33.173Z,32.17
2018-12-16T23:40:01.716Z,33.27
2018-12-16T23:42:30.226Z,35.40
2018-12-16T23:44:58.573Z,36.47
2018-12-16T23:47:26.935Z,34.17
2018-12-16T23:49:55.505Z,32.80
2018-12-16T23:52:23.867Z,33.60
2018-12-16T23:54:52.219Z,34.87
2018-12-16T23:57:20.684Z,34.73
2018-12-16T23:59:50.209Z,34.90
